Time;durP1;ratioP1;P1;durP2;ratioP2;P2;SDS_P1;SDS_P2;PMS_P1;PMS_P2;Temp;Humidity;BMP_temperature;BMP_pressure;BME280_temperature;BME280_humidity;BME280_pressure;Samples;Min_cycle;Max_cycle;Signal;HPM_P1;HPM_P2
2022/01/23 00:02:06;;;;;;;9.90;4.93;;;6.20;99.90;;;;;;5053590;28;20119;-80
2022/01/23 00:04:33;;;;;;;11.10;5.35;;;6.10;99.90;;;;;;5034728;28;20582;-80
2022/01/23 00:07:02;;;;;;;10.95;5.85;;;6.10;99.90;;;;;;5033611;28;20123;-80
2022/01/23 00:09:29;;;;;;;8.48;5.22;;;6.10;99.90;;;;;;5055417;28;20075;-81
2022/01/23 00:11:55;;;;;;;13.77;5.13;;;6.10;99.90;;;;;;5055164;28;20512;-80
2022/01/23 00:17:20;;;;;;;13.53;5.23;;;6.10;99.90;;;;;;5051566;28;20067;-80
2022/01/23 00:19:49;;;;;;;12.32;4.95;;;6.10;99.90;;;;;;5034405;28;20288;-80
2022/01/23 00:22:16;;;;;;;12.40;5.80;;;6.10;99.90;;;;;;5025684;28;20469;-80
2022/01/23 00:30:30;;;;;;;8.50;5.13;;;6.00;99.90;;;;;;5041982;28;20048;-80
2022/01/23 00:33:01;;;;;;;14.40;5.07;;;6.10;99.90;;;;;;5052848;28;20037;-80
2022/01/23 00:35:27;;;;;;;10.73;4.95;;;6.10;99.90;;;;;;5039267;28;20071;-81
2022/01/23 00:37:55;;;;;;;15.15;5.32;;;6.10;99.90;;;;;;5035863;28;20580;-80
2022/01/23 00:40:22;;;;;;;11.00;4.95;;;6.10;99.90;;;;;;5031843;28;20555;-80
2022/01/23 00:42:48;;;;;;;10.90;4.80;;;6.10;99.90;;;;;;5025022;28;20504;-80
2022/01/23 00:47:58;;;;;;;9.32;4.55;;;6.10;99.90;;;;;;5053558;28;20048;-80
2022/01/23 00:50:23;;;;;;;9.77;5.22;;;6.00;99.90;;;;;;5050918;28;20453;-80
2022/01/23 00:52:49;;;;;;;9.43;4.32;;;6.00;99.90;;;;;;5032942;28;20079;-80
2022/01/23 00:55:15;;;;;;;8.88;4.68;;;6.10;99.90;;;;;;5047003;28;20093;-81
2022/01/23 00:57:41;;;;;;;8.27;5.05;;;6.00;99.90;;;;;;5047944;28;20045;-81
2022/01/23 01:00:08;;;;;;;13.85;4.93;;;6.10;99.90;;;;;;5031564;28;20407;-80
2022/01/23 01:02:34;;;;;;;9.05;4.93;;;6.10;99.90;;;;;;5049493;28;20290;-81
2022/01/23 01:05:00;;;;;;;8.23;4.95;;;6.00;99.90;;;;;;5032388;28;20477;-80
2022/01/23 01:07:25;;;;;;;8.85;4.95;;;6.00;99.90;;;;;;5045665;28;20040;-80
2022/01/23 01:09:59;;;;;;;11.88;4.93;;;6.00;99.90;;;;;;5043069;28;20404;-80
2022/01/23 01:12:32;;;;;;;10.18;4.55;;;6.10;99.90;;;;;;5032570;28;20123;-80
2022/01/23 01:15:26;;;;;;;13.43;5.10;;;6.00;99.90;;;;;;5047689;28;20045;-80
2022/01/23 01:31:38;;;;;;;11.00;5.28;;;6.10;99.90;;;;;;5049770;28;20040;-80
2022/01/23 01:36:49;;;;;;;10.68;5.43;;;6.10;99.90;;;;;;5049146;28;20041;-80
2022/01/23 01:39:18;;;;;;;11.65;5.60;;;6.10;99.90;;;;;;5078036;28;20256;-80
2022/01/23 01:41:45;;;;;;;11.90;5.32;;;6.00;99.90;;;;;;5050823;28;20037;-80
2022/01/23 01:44:11;;;;;;;10.32;5.28;;;6.10;99.90;;;;;;5058624;28;20044;-80
2022/01/23 01:46:37;;;;;;;10.95;5.43;;;6.10;99.90;;;;;;5049975;28;20040;-80
2022/01/23 01:49:03;;;;;;;11.43;5.35;;;6.10;99.90;;;;;;5054120;28;20476;-80
2022/01/23 01:51:32;;;;;;;10.23;4.82;;;6.00;99.90;;;;;;5028241;28;20127;-81
2022/01/23 01:54:06;;;;;;;14.18;5.57;;;6.00;99.90;;;;;;5040580;28;20493;-80
2022/01/23 01:56:39;;;;;;;12.93;5.10;;;6.00;99.90;;;;;;5050778;28;20044;-81
2022/01/23 01:59:16;;;;;;;10.57;5.22;;;6.00;99.90;;;;;;5035506;28;20419;-80
2022/01/23 02:09:33;;;;;;;14.23;5.43;;;6.00;99.90;;;;;;5054671;28;20199;-80
2022/01/23 02:12:24;;;;;;;15.38;7.00;;;6.00;99.90;;;;;;5056486;28;20045;-80
2022/01/23 02:51:01;;;;;;;13.52;5.70;;;6.00;99.90;;;;;;5071060;28;20102;-80
2022/01/23 02:53:52;;;;;;;11.43;5.75;;;6.10;99.90;;;;;;5033446;28;20107;-80
2022/01/23 02:56:22;;;;;;;9.85;5.00;;;6.00;99.90;;;;;;5036791;28;20059;-80
2022/01/23 02:58:58;;;;;;;11.77;5.80;;;6.00;99.90;;;;;;5055540;28;20029;-81
2022/01/23 03:01:29;;;;;;;10.20;5.63;;;6.10;99.90;;;;;;5048649;28;20119;-81
2022/01/23 03:04:08;;;;;;;11.15;5.07;;;6.00;99.90;;;;;;5041378;28;20491;-80
2022/01/23 03:30:27;;;;;;;11.63;5.65;;;6.00;99.90;;;;;;5070705;28;20360;-80
2022/01/23 03:32:54;;;;;;;10.23;5.43;;;6.00;99.90;;;;;;5049028;28;20480;-80
2022/01/23 03:35:22;;;;;;;13.65;5.85;;;6.00;99.90;;;;;;5034507;28;20485;-80
2022/01/23 03:37:48;;;;;;;12.43;6.28;;;6.00;99.90;;;;;;5032134;28;20040;-80
2022/01/23 03:40:15;;;;;;;10.93;5.82;;;6.00;99.90;;;;;;5053750;28;20108;-80
2022/01/23 03:42:43;;;;;;;14.32;6.10;;;6.00;99.90;;;;;;5056278;28;20029;-80
2022/01/23 03:47:40;;;;;;;14.43;5.85;;;6.00;99.90;;;;;;5046619;28;20361;-80
2022/01/23 03:50:11;;;;;;;12.93;5.60;;;6.00;99.90;;;;;;5056525;28;20025;-81
2022/01/23 03:52:38;;;;;;;10.57;5.20;;;6.00;99.90;;;;;;5032748;28;20105;-81
2022/01/23 03:55:06;;;;;;;9.98;5.65;;;6.00;99.90;;;;;;5035709;28;20109;-80
2022/01/23 03:57:32;;;;;;;12.30;5.65;;;6.00;99.90;;;;;;5033811;28;20096;-81
2022/01/23 03:59:58;;;;;;;13.90;6.47;;;6.00;99.90;;;;;;5054832;28;20117;-80
2022/01/23 04:02:24;;;;;;;10.05;5.13;;;6.00;99.90;;;;;;5052385;28;20044;-80
2022/01/23 04:04:50;;;;;;;11.48;5.35;;;6.00;99.90;;;;;;5035850;28;20033;-81
2022/01/23 04:07:22;;;;;;;9.02;5.53;;;6.00;99.90;;;;;;5036043;28;20097;-81
2022/01/23 04:09:49;;;;;;;13.55;5.38;;;6.00;99.90;;;;;;5070356;28;20041;-81
2022/01/23 04:14:55;;;;;;;10.60;5.63;;;6.00;99.90;;;;;;5073244;28;20049;-80
2022/01/23 04:33:42;;;;;;;11.38;5.53;;;6.10;99.90;;;;;;5053006;28;20055;-81
2022/01/23 05:00:52;;;;;;;14.05;7.03;;;6.10;99.90;;;;;;5073200;28;20045;-80
2022/01/23 05:06:03;;;;;;;12.90;6.80;;;6.10;99.90;;;;;;5059666;28;20048;-80
2022/01/23 05:08:32;;;;;;;13.25;6.80;;;6.10;99.90;;;;;;5033314;28;20036;-81
2022/01/23 05:11:00;;;;;;;13.60;6.80;;;6.00;99.90;;;;;;5036029;28;20036;-80
2022/01/23 05:13:30;;;;;;;11.32;6.07;;;6.10;99.90;;;;;;5033645;28;20115;-80
2022/01/23 05:15:56;;;;;;;13.15;7.45;;;6.10;99.90;;;;;;5048822;28;20040;-80
2022/01/23 05:18:21;;;;;;;10.35;6.22;;;6.10;99.90;;;;;;5031499;28;20024;-81
2022/01/23 05:20:54;;;;;;;12.30;6.47;;;6.10;99.90;;;;;;5031095;28;20540;-81
2022/01/23 05:23:20;;;;;;;13.48;6.82;;;6.10;99.90;;;;;;5068319;28;20519;-80
2022/01/23 05:25:45;;;;;;;12.63;6.35;;;6.10;99.90;;;;;;5031256;28;20033;-80
2022/01/23 05:28:11;;;;;;;16.20;6.90;;;6.10;99.90;;;;;;5048225;28;20040;-80
2022/01/23 05:30:38;;;;;;;13.10;6.43;;;6.10;99.90;;;;;;5054775;28;20040;-81
2022/01/23 05:33:03;;;;;;;17.67;7.28;;;6.10;99.90;;;;;;5048306;28;20114;-81
2022/01/23 05:35:30;;;;;;;13.60;6.38;;;6.10;99.90;;;;;;5030555;28;20152;-80
2022/01/23 05:37:56;;;;;;;12.85;7.40;;;6.10;99.90;;;;;;5029215;28;20099;-81
2022/01/23 05:40:25;;;;;;;15.02;6.72;;;6.10;99.90;;;;;;5032244;28;20479;-80
2022/01/23 05:42:51;;;;;;;14.20;6.78;;;6.10;99.90;;;;;;5029190;28;20111;-80
2022/01/23 05:45:17;;;;;;;15.80;7.13;;;6.10;99.90;;;;;;5047159;28;20167;-80
2022/01/23 05:47:43;;;;;;;12.80;7.28;;;6.10;99.90;;;;;;5062370;28;20039;-80
2022/01/23 05:50:08;;;;;;;13.95;6.90;;;6.10;99.90;;;;;;5033811;28;20064;-80
2022/01/23 05:52:36;;;;;;;14.63;7.47;;;6.10;99.90;;;;;;5041935;28;20053;-80
2022/01/23 05:55:03;;;;;;;12.77;6.93;;;6.10;99.90;;;;;;5031976;28;20098;-80
2022/01/23 05:57:29;;;;;;;12.20;6.95;;;6.10;99.90;;;;;;5030329;28;20044;-80
2022/01/23 05:59:54;;;;;;;12.38;6.95;;;6.10;99.90;;;;;;5059493;28;20380;-80
2022/01/23 06:02:20;;;;;;;12.63;6.40;;;6.10;99.90;;;;;;5033518;28;20088;-80
2022/01/23 06:04:46;;;;;;;11.48;6.20;;;6.10;99.90;;;;;;5046334;28;20086;-80
2022/01/23 06:07:14;;;;;;;11.50;7.28;;;6.10;99.90;;;;;;5049412;28;20392;-80
2022/01/23 06:09:41;;;;;;;14.20;6.95;;;6.10;99.90;;;;;;5041815;28;20049;-81
2022/01/23 06:12:08;;;;;;;12.15;6.28;;;6.10;99.90;;;;;;5049326;28;20115;-80
2022/01/23 06:14:33;;;;;;;12.15;5.90;;;6.10;99.90;;;;;;5043140;28;20401;-80
2022/01/23 06:16:59;;;;;;;13.10;6.25;;;6.10;99.90;;;;;;5048965;28;20123;-81
2022/01/23 06:19:25;;;;;;;10.80;6.00;;;6.10;99.90;;;;;;5031302;28;20035;-80
2022/01/23 06:21:51;;;;;;;11.63;6.50;;;6.10;99.90;;;;;;5044100;28;20080;-80
2022/01/23 06:24:28;;;;;;;13.68;7.63;;;6.10;99.90;;;;;;5030186;28;20051;-80
2022/01/23 06:26:57;;;;;;;15.88;7.38;;;6.10;99.90;;;;;;5069962;28;20032;-80
2022/01/23 06:29:24;;;;;;;10.15;6.57;;;6.10;99.90;;;;;;5044895;28;20072;-81
2022/01/23 06:31:53;;;;;;;16.42;7.35;;;6.10;99.90;;;;;;5034008;28;20134;-81
2022/01/23 06:34:19;;;;;;;12.50;6.80;;;6.10;99.90;;;;;;5025833;28;20057;-80
2022/01/23 06:36:45;;;;;;;11.38;6.55;;;6.10;99.90;;;;;;5035740;28;20052;-80
2022/01/23 06:39:12;;;;;;;13.50;6.55;;;6.00;99.90;;;;;;5050492;28;20483;-80
2022/01/23 06:41:39;;;;;;;11.32;6.60;;;6.00;99.90;;;;;;5048480;28;20033;-80
2022/01/23 06:44:05;;;;;;;13.80;6.97;;;6.10;99.90;;;;;;5066904;28;20041;-81
2022/01/23 06:46:31;;;;;;;12.27;6.30;;;6.10;99.90;;;;;;5039134;28;20051;-80
2022/01/23 06:48:57;;;;;;;12.68;6.97;;;6.10;99.90;;;;;;5053467;28;20033;-80
2022/01/23 06:51:23;;;;;;;11.82;6.70;;;6.10;99.90;;;;;;5078428;28;20123;-81
2022/01/23 06:53:49;;;;;;;12.85;6.30;;;6.00;99.90;;;;;;5051398;28;20106;-80
2022/01/23 06:56:15;;;;;;;11.07;6.63;;;6.00;99.90;;;;;;5033476;28;20029;-80
2022/01/23 06:58:41;;;;;;;11.27;6.43;;;6.00;99.90;;;;;;5048791;28;20739;-80
2022/01/23 07:01:07;;;;;;;13.63;6.50;;;6.00;99.90;;;;;;5032413;28;20369;-81
2022/01/23 07:03:37;;;;;;;14.82;7.65;;;6.00;99.90;;;;;;5052184;28;20547;-81
2022/01/23 07:06:03;;;;;;;13.02;7.22;;;6.00;99.90;;;;;;5048266;28;20040;-81
2022/01/23 07:08:29;;;;;;;14.00;6.68;;;6.00;99.90;;;;;;5051378;28;20101;-80
2022/01/23 07:10:55;;;;;;;11.20;6.70;;;6.00;99.90;;;;;;5047513;28;20040;-80
2022/01/23 07:13:21;;;;;;;17.52;7.55;;;6.00;99.90;;;;;;5049166;28;20045;-81
2022/01/23 07:15:47;;;;;;;14.20;7.47;;;6.00;99.90;;;;;;5032935;28;20041;-81
2022/01/23 07:18:15;;;;;;;13.38;7.25;;;6.00;99.90;;;;;;5051943;28;20105;-80
2022/01/23 07:20:45;;;;;;;12.35;7.38;;;5.90;99.90;;;;;;5048345;28;20122;-80
2022/01/23 07:23:11;;;;;;;13.73;7.97;;;6.00;99.90;;;;;;5054396;28;20025;-80
2022/01/23 07:25:38;;;;;;;14.38;7.40;;;5.90;99.90;;;;;;5047993;28;20072;-81
2022/01/23 07:28:06;;;;;;;13.63;6.90;;;5.90;99.90;;;;;;5053463;28;20102;-81
2022/01/23 07:30:40;;;;;;;14.02;6.95;;;6.00;99.90;;;;;;5033125;28;20036;-81
2022/01/23 07:33:05;;;;;;;15.48;7.47;;;5.90;99.90;;;;;;5051123;28;20095;-80
2022/01/23 07:35:32;;;;;;;12.65;6.53;;;5.80;99.90;;;;;;5057880;28;20477;-81
2022/01/23 07:37:58;;;;;;;11.95;6.90;;;5.90;99.90;;;;;;5034411;28;20168;-80
2022/01/23 07:40:23;;;;;;;9.90;6.35;;;5.90;99.90;;;;;;5047888;28;20476;-81
2022/01/23 07:42:49;;;;;;;11.85;7.05;;;5.90;99.90;;;;;;5049854;28;20049;-81
2022/01/23 07:45:15;;;;;;;10.43;6.30;;;5.80;99.90;;;;;;5046748;28;20136;-80
2022/01/23 07:47:41;;;;;;;11.05;6.07;;;5.80;99.90;;;;;;5037536;28;20036;-80
2022/01/23 07:50:10;;;;;;;10.38;6.10;;;5.90;99.90;;;;;;5050604;28;20475;-80
2022/01/23 07:52:37;;;;;;;10.63;5.47;;;5.80;99.90;;;;;;5048063;28;20044;-81
2022/01/23 07:55:06;;;;;;;9.23;5.82;;;5.90;99.90;;;;;;5047798;28;20060;-80
2022/01/23 07:57:32;;;;;;;11.40;5.80;;;5.80;99.90;;;;;;5031925;28;20041;-80
2022/01/23 07:59:59;;;;;;;9.80;5.80;;;5.80;99.90;;;;;;5071918;28;20107;-81
2022/01/23 08:02:27;;;;;;;9.82;5.78;;;5.90;99.90;;;;;;5031755;28;20303;-81
2022/01/23 08:04:53;;;;;;;12.23;6.70;;;5.80;99.90;;;;;;5052762;28;20051;-80
2022/01/23 08:07:37;;;;;;;9.88;6.07;;;5.80;99.90;;;;;;5051999;28;20037;-81
2022/01/23 08:10:08;;;;;;;11.13;6.45;;;5.90;99.90;;;;;;5070425;28;20400;-80
2022/01/23 08:12:34;;;;;;;10.15;6.20;;;5.80;99.90;;;;;;5052549;28;20626;-81
2022/01/23 08:15:00;;;;;;;13.57;6.90;;;5.90;99.90;;;;;;5027851;28;20227;-80
2022/01/23 08:17:27;;;;;;;9.55;6.07;;;5.80;99.90;;;;;;5036185;28;20058;-80
2022/01/23 08:19:59;;;;;;;11.23;6.15;;;5.90;99.90;;;;;;5047775;28;20037;-81
2022/01/23 08:22:26;;;;;;;10.30;6.25;;;5.80;99.90;;;;;;5035234;28;20055;-80
2022/01/23 08:24:54;;;;;;;12.55;6.35;;;5.90;99.90;;;;;;5032803;28;20468;-80
2022/01/23 08:27:20;;;;;;;11.45;6.28;;;5.90;99.90;;;;;;5031396;28;20119;-80
2022/01/23 08:29:46;;;;;;;11.77;7.03;;;5.90;99.90;;;;;;5050940;28;20055;-81
2022/01/23 08:32:12;;;;;;;12.30;6.25;;;6.00;99.90;;;;;;5035911;28;20036;-81
2022/01/23 08:34:38;;;;;;;9.85;5.90;;;6.10;99.90;;;;;;5034511;28;20412;-80
2022/01/23 08:37:06;;;;;;;12.23;6.85;;;6.10;99.90;;;;;;5034507;28;20519;-80
2022/01/23 08:39:35;;;;;;;11.63;6.35;;;6.10;99.90;;;;;;5049747;28;20558;-81
2022/01/23 08:42:06;;;;;;;15.45;6.60;;;6.10;99.90;;;;;;5031143;28;20108;-80
2022/01/23 08:44:31;;;;;;;9.38;5.88;;;6.20;99.90;;;;;;5029029;28;20037;-80
2022/01/23 08:46:58;;;;;;;10.90;6.88;;;6.30;99.90;;;;;;5033594;28;20053;-80
2022/01/23 08:49:27;;;;;;;8.93;5.72;;;6.30;99.90;;;;;;5023173;28;20350;-81
2022/01/23 08:51:55;;;;;;;14.23;6.32;;;6.30;99.90;;;;;;5029164;28;20039;-81
2022/01/23 08:54:21;;;;;;;10.65;6.60;;;6.30;99.90;;;;;;5034783;28;20039;-80
2022/01/23 08:56:49;;;;;;;10.00;5.57;;;6.40;99.90;;;;;;5068877;28;20124;-80
2022/01/23 08:59:15;;;;;;;10.10;5.55;;;6.50;99.90;;;;;;5046074;28;20055;-81
2022/01/23 09:01:41;;;;;;;10.10;5.70;;;6.50;99.90;;;;;;5033591;28;20037;-80
2022/01/23 09:04:07;;;;;;;9.30;5.55;;;6.60;99.90;;;;;;5030273;28;20040;-80
2022/01/23 09:06:33;;;;;;;8.48;5.32;;;6.60;99.90;;;;;;5030468;28;20040;-80
2022/01/23 09:09:00;;;;;;;10.25;5.50;;;6.70;99.90;;;;;;5045057;28;20041;-81
2022/01/23 09:14:09;;;;;;;10.32;4.95;;;6.60;99.90;;;;;;5038212;28;20175;-81
2022/01/23 09:16:37;;;;;;;7.70;4.82;;;6.60;99.90;;;;;;5030510;28;20074;-81
2022/01/23 09:19:04;;;;;;;7.53;5.10;;;6.70;99.90;;;;;;5030915;28;20032;-81
2022/01/23 09:21:30;;;;;;;7.50;4.70;;;6.70;99.90;;;;;;5028273;28;20492;-80
2022/01/23 09:23:57;;;;;;;7.68;5.43;;;6.70;99.90;;;;;;5052120;28;20052;-81
2022/01/23 09:26:26;;;;;;;8.02;5.40;;;6.70;99.90;;;;;;5050285;28;20043;-81
2022/01/23 09:28:55;;;;;;;9.18;5.20;;;6.80;99.90;;;;;;5032218;28;20182;-81
2022/01/23 09:31:29;;;;;;;7.47;5.13;;;6.80;99.90;;;;;;5026425;28;20040;-81
2022/01/23 09:33:55;;;;;;;7.43;5.20;;;6.90;99.90;;;;;;5049039;28;20060;-81
2022/01/23 09:36:21;;;;;;;7.35;5.10;;;6.80;99.90;;;;;;5043885;28;20293;-81
2022/01/23 09:38:46;;;;;;;8.48;5.13;;;6.90;99.90;;;;;;5026469;28;20032;-80
2022/01/23 09:41:16;;;;;;;8.43;5.07;;;7.00;99.90;;;;;;5030350;28;20066;-80
2022/01/23 09:43:45;;;;;;;11.90;5.75;;;7.00;99.90;;;;;;5024045;28;20040;-81
2022/01/23 09:46:13;;;;;;;7.07;5.40;;;7.00;99.90;;;;;;5028338;28;20306;-81
2022/01/23 09:48:44;;;;;;;7.60;5.15;;;7.00;99.90;;;;;;5066584;28;20036;-80
2022/01/23 09:51:10;;;;;;;7.55;5.07;;;7.00;99.90;;;;;;5031939;28;20275;-81
2022/01/23 09:53:38;;;;;;;9.20;5.68;;;7.10;99.90;;;;;;5044647;28;20037;-81
2022/01/23 09:56:05;;;;;;;8.00;5.97;;;7.00;99.90;;;;;;5028160;28;20028;-81
2022/01/23 09:58:32;;;;;;;9.27;5.88;;;7.00;99.90;;;;;;5040261;28;20045;-81
2022/01/23 10:00:59;;;;;;;8.85;5.90;;;7.10;99.90;;;;;;5045035;28;20041;-81
2022/01/23 10:03:24;;;;;;;10.27;5.95;;;7.20;99.90;;;;;;5028898;28;20159;-80
2022/01/23 10:05:55;;;;;;;8.55;5.35;;;7.20;99.90;;;;;;5050053;28;20111;-81
2022/01/23 10:08:27;;;;;;;8.00;4.90;;;7.30;99.90;;;;;;5026194;28;20051;-80
2022/01/23 10:10:55;;;;;;;6.55;4.72;;;7.20;99.90;;;;;;5052295;28;20554;-81
2022/01/23 10:13:23;;;;;;;6.95;4.70;;;7.20;99.90;;;;;;5029322;28;20029;-80
2022/01/23 10:15:48;;;;;;;6.32;4.05;;;7.30;99.90;;;;;;5057048;28;20599;-81
2022/01/23 10:18:15;;;;;;;5.07;4.15;;;7.20;99.90;;;;;;5035773;28;20045;-81
2022/01/23 10:20:41;;;;;;;5.90;4.18;;;7.30;99.90;;;;;;5050542;28;20044;-81
2022/01/23 10:23:09;;;;;;;6.10;4.20;;;7.30;99.90;;;;;;5032376;28;20028;-81
2022/01/23 10:25:41;;;;;;;7.03;4.10;;;7.30;99.90;;;;;;5047803;28;20044;-81
2022/01/23 10:28:19;;;;;;;4.20;3.33;;;7.40;99.90;;;;;;5036158;28;20067;-81
2022/01/23 10:30:48;;;;;;;3.95;3.13;;;7.40;99.90;;;;;;5076659;28;20037;-81
2022/01/23 10:33:19;;;;;;;5.85;3.25;;;7.50;99.90;;;;;;5037762;28;20061;-81
2022/01/23 10:35:58;;;;;;;4.70;3.53;;;7.50;99.90;;;;;;5055557;28;20053;-80
2022/01/23 10:38:28;;;;;;;3.83;2.97;;;7.50;99.90;;;;;;5039985;28;20116;-81
2022/01/23 10:49:50;;;;;;;2.17;1.90;;;7.60;99.90;;;;;;5045948;28;20484;-80
2022/01/23 10:52:47;;;;;;;2.13;1.70;;;7.60;99.90;;;;;;5056695;28;20041;-81
2022/01/23 10:55:13;;;;;;;3.95;2.40;;;7.50;99.90;;;;;;5052599;28;20060;-81
2022/01/23 10:57:45;;;;;;;4.85;2.70;;;7.60;99.90;;;;;;5052488;28;20067;-81
2022/01/23 11:00:19;;;;;;;3.83;3.08;;;7.60;99.90;;;;;;5048067;28;20144;-81
2022/01/23 11:02:45;;;;;;;4.78;2.78;;;7.70;99.90;;;;;;5038391;28;20167;-81
2022/01/23 11:05:12;;;;;;;3.70;2.83;;;7.70;99.90;;;;;;5048499;28;20454;-81
2022/01/23 11:07:44;;;;;;;4.05;2.90;;;7.70;99.90;;;;;;5037053;28;20045;-81
2022/01/23 11:10:15;;;;;;;3.83;2.47;;;7.80;99.90;;;;;;5029956;28;20063;-80
2022/01/23 11:18:14;;;;;;;4.63;2.45;;;8.00;99.90;;;;;;5048236;28;20049;-81
2022/01/23 11:20:41;;;;;;;2.10;1.90;;;8.00;99.90;;;;;;5074680;28;20082;-81
2022/01/23 11:23:15;;;;;;;1.65;1.50;;;7.90;99.90;;;;;;5053084;28;20060;-81
2022/01/23 11:26:04;;;;;;;2.55;1.70;;;7.90;99.90;;;;;;5054510;28;20114;-81
2022/01/23 11:28:32;;;;;;;2.83;1.70;;;8.00;99.90;;;;;;5035201;28;20036;-81
2022/01/23 11:30:58;;;;;;;1.83;1.30;;;8.00;99.90;;;;;;5050587;28;20360;-81
2022/01/23 11:33:24;;;;;;;1.70;1.15;;;8.00;99.90;;;;;;5036254;28;20459;-81
2022/01/23 11:35:50;;;;;;;1.52;1.00;;;8.10;99.90;;;;;;5035852;28;20052;-81
2022/01/23 11:38:19;;;;;;;1.23;0.82;;;8.10;99.90;;;;;;5036732;28;20028;-81
2022/01/23 11:54:48;;;;;;;2.28;1.15;;;8.00;99.90;;;;;;5058061;28;20037;-81
2022/01/23 11:57:33;;;;;;;1.67;1.30;;;8.00;99.90;;;;;;5030785;28;20084;-81
2022/01/23 12:00:03;;;;;;;2.33;1.30;;;8.00;99.90;;;;;;5031364;28;20560;-81
2022/01/23 12:02:36;;;;;;;2.92;1.20;;;7.90;99.90;;;;;;5034102;28;20090;-81
2022/01/23 12:05:21;;;;;;;2.35;1.10;;;7.80;99.90;;;;;;5037587;28;20036;-81
2022/01/23 12:08:20;;;;;;;2.38;1.60;;;7.90;99.90;;;;;;5021239;28;20044;-81
2022/01/23 12:16:32;;;;;;;2.65;1.33;;;7.90;99.90;;;;;;5048721;28;20074;-81
2022/01/23 12:19:20;;;;;;;1.45;1.10;;;8.10;99.90;;;;;;5073831;28;20413;-81
2022/01/23 12:21:47;;;;;;;1.65;1.10;;;8.10;99.90;;;;;;5048414;28;20040;-81
2022/01/23 12:24:15;;;;;;;1.48;1.05;;;8.10;99.90;;;;;;5029217;28;20508;-81
2022/01/23 12:26:45;;;;;;;2.22;1.40;;;8.10;99.90;;;;;;5053025;28;20062;-80
2022/01/23 12:29:12;;;;;;;1.83;1.05;;;8.10;99.90;;;;;;5046082;28;20492;-81
2022/01/23 12:31:39;;;;;;;2.15;1.20;;;8.10;99.90;;;;;;5034589;28;20047;-81
2022/01/23 12:34:05;;;;;;;3.55;1.40;;;8.10;99.90;;;;;;5046884;28;20052;-81
2022/01/23 12:36:34;;;;;;;2.97;1.35;;;8.20;99.90;;;;;;5034163;28;20483;-81
2022/01/23 12:39:08;;;;;;;3.47;1.58;;;8.20;99.90;;;;;;5029035;28;20353;-81
2022/01/23 12:41:38;;;;;;;1.98;1.60;;;8.20;99.90;;;;;;5031130;28;20041;-80
2022/01/23 12:44:29;;;;;;;2.75;1.80;;;8.20;99.90;;;;;;5054156;28;20048;-81
2022/01/23 12:46:56;;;;;;;2.58;1.80;;;8.20;99.90;;;;;;5031250;28;20267;-81
2022/01/23 12:49:30;;;;;;;4.28;2.28;;;8.20;99.90;;;;;;5033296;28;20041;-81
2022/01/23 12:52:09;;;;;;;3.63;2.33;;;8.20;99.90;;;;;;5050857;28;20041;-81
2022/01/23 12:54:46;;;;;;;3.50;2.25;;;8.20;99.90;;;;;;5025998;28;20045;-80
2022/01/23 12:57:23;;;;;;;3.35;2.30;;;8.20;99.90;;;;;;5048213;28;20075;-81
2022/01/23 12:59:54;;;;;;;3.30;2.42;;;8.20;99.90;;;;;;5047724;28;20566;-81
2022/01/23 13:02:22;;;;;;;3.30;2.50;;;8.30;99.90;;;;;;5030177;28;20033;-81
2022/01/23 13:04:54;;;;;;;3.72;2.67;;;8.30;99.90;;;;;;5031370;28;20028;-81
2022/01/23 13:10:21;;;;;;;4.65;2.95;;;8.30;99.90;;;;;;5069300;28;20087;-81
2022/01/23 13:13:04;;;;;;;5.55;3.10;;;8.30;99.90;;;;;;5032162;28;20383;-81
2022/01/23 13:35:11;;;;;;;5.18;3.35;;;8.10;99.90;;;;;;5049149;28;20437;-81
2022/01/23 13:37:39;;;;;;;5.03;3.47;;;8.00;99.90;;;;;;5024634;28;20049;-80
2022/01/23 13:40:10;;;;;;;5.95;3.88;;;8.00;99.90;;;;;;5030992;28;20514;-81
2022/01/23 14:02:25;;;;;;;6.63;3.40;;;7.90;99.90;;;;;;5075781;28;20033;-81
2022/01/23 14:05:14;;;;;;;5.93;3.67;;;7.90;99.90;;;;;;5051267;28;20115;-81
2022/01/23 14:08:03;;;;;;;5.13;3.63;;;7.90;99.90;;;;;;5045041;28;20032;-81
2022/01/23 14:10:34;;;;;;;4.72;3.17;;;7.80;99.90;;;;;;5073786;28;20037;-81
2022/01/23 14:13:11;;;;;;;4.57;3.40;;;7.80;99.90;;;;;;5048528;28;20036;-81
2022/01/23 14:15:50;;;;;;;4.07;3.15;;;7.80;99.90;;;;;;5037925;28;20067;-81
2022/01/23 14:18:28;;;;;;;5.97;2.80;;;7.80;99.90;;;;;;5055575;28;20129;-81
2022/01/23 14:21:14;;;;;;;5.05;2.60;;;7.70;99.90;;;;;;5056250;28;20180;-81
2022/01/23 14:23:39;;;;;;;3.35;2.50;;;7.70;99.90;;;;;;5077742;28;20139;-81
2022/01/23 14:26:08;;;;;;;4.97;3.03;;;7.60;99.90;;;;;;5039568;28;20170;-81
2022/01/23 14:28:52;;;;;;;3.63;2.20;;;7.60;99.90;;;;;;5037941;28;20104;-81
2022/01/23 14:31:22;;;;;;;3.30;2.20;;;7.60;99.90;;;;;;5034564;28;20032;-81
2022/01/23 14:33:52;;;;;;;4.20;2.55;;;7.60;99.90;;;;;;5036510;28;20124;-81
2022/01/23 14:36:20;;;;;;;5.82;3.33;;;7.60;99.90;;;;;;5034487;28;20053;-81
2022/01/23 14:38:59;;;;;;;2.67;2.20;;;7.60;99.90;;;;;;5052023;28;20025;-81
2022/01/23 14:41:27;;;;;;;3.13;2.25;;;7.60;99.90;;;;;;5032657;28;20041;-81
2022/01/23 14:43:53;;;;;;;4.28;2.03;;;7.50;99.90;;;;;;5034978;28;20277;-81
2022/01/23 14:46:19;;;;;;;4.40;2.60;;;7.50;99.90;;;;;;5033929;28;20047;-81
2022/01/23 14:48:48;;;;;;;5.03;2.80;;;7.40;99.90;;;;;;5038781;28;20388;-81
2022/01/23 14:51:25;;;;;;;4.72;2.55;;;7.40;99.90;;;;;;5035586;28;20040;-81
2022/01/23 14:53:52;;;;;;;3.17;2.40;;;7.40;99.90;;;;;;5049432;28;20037;-81
2022/01/23 14:56:20;;;;;;;4.20;2.92;;;7.40;99.90;;;;;;5052654;28;20048;-81
2022/01/23 14:58:47;;;;;;;6.50;3.38;;;7.40;99.90;;;;;;5032651;28;20156;-81
2022/01/23 15:01:16;;;;;;;7.13;3.00;;;7.40;99.90;;;;;;5049994;28;20041;-81
2022/01/23 15:03:47;;;;;;;6.80;3.75;;;7.30;99.90;;;;;;5032967;28;20132;-81
2022/01/23 15:06:15;;;;;;;5.30;2.92;;;7.30;99.90;;;;;;5050158;28;20067;-81
2022/01/23 15:08:43;;;;;;;6.25;2.78;;;7.30;99.90;;;;;;5054038;28;20102;-81
2022/01/23 15:11:09;;;;;;;5.15;2.20;;;7.30;99.90;;;;;;5055618;28;20059;-81
2022/01/23 15:13:36;;;;;;;3.58;2.08;;;7.30;99.90;;;;;;5049117;28;20492;-81
2022/01/23 15:16:02;;;;;;;3.65;2.30;;;7.30;99.90;;;;;;5037934;28;20414;-81
2022/01/23 15:18:27;;;;;;;3.42;2.30;;;7.30;99.90;;;;;;5047534;28;20522;-81
2022/01/23 15:20:53;;;;;;;2.63;2.03;;;7.30;99.90;;;;;;5055144;28;20484;-81
2022/01/23 15:23:19;;;;;;;4.20;2.47;;;7.20;99.90;;;;;;5046401;28;20036;-81
2022/01/23 15:25:46;;;;;;;3.97;2.28;;;7.30;99.90;;;;;;5033414;28;20045;-81
2022/01/23 15:28:13;;;;;;;2.75;2.15;;;7.20;99.90;;;;;;5034216;28;20035;-81
2022/01/23 15:30:39;;;;;;;2.53;2.08;;;7.20;99.90;;;;;;5030510;28;20861;-80
2022/01/23 15:33:06;;;;;;;4.63;2.40;;;7.20;99.90;;;;;;5036792;28;20035;-81
2022/01/23 15:35:33;;;;;;;4.30;2.45;;;7.20;99.90;;;;;;5050997;28;20057;-81
2022/01/23 15:37:59;;;;;;;3.33;2.40;;;7.20;99.90;;;;;;5035388;28;20396;-81
2022/01/23 15:40:25;;;;;;;3.90;2.42;;;7.20;99.90;;;;;;5036319;28;20108;-81
2022/01/23 15:42:53;;;;;;;4.65;2.60;;;7.10;99.90;;;;;;5052980;28;20074;-81
2022/01/23 15:45:23;;;;;;;3.80;2.47;;;7.20;99.90;;;;;;5052063;28;20541;-80
2022/01/23 15:47:49;;;;;;;3.65;2.40;;;7.10;99.90;;;;;;5053697;28;20033;-81
2022/01/23 15:50:17;;;;;;;4.30;2.80;;;7.10;99.90;;;;;;5039329;28;20036;-81
2022/01/23 15:52:43;;;;;;;3.92;2.90;;;7.10;99.90;;;;;;5047242;28;20039;-81
2022/01/23 15:55:10;;;;;;;5.05;3.42;;;7.00;99.90;;;;;;5051189;28;20443;-81
2022/01/23 15:57:37;;;;;;;5.32;2.67;;;7.00;99.90;;;;;;5053378;28;20052;-81
2022/01/23 16:00:07;;;;;;;4.00;2.75;;;7.00;99.90;;;;;;5070957;28;20051;-81
2022/01/23 16:02:32;;;;;;;3.42;2.42;;;7.00;99.90;;;;;;5047089;28;20559;-81
2022/01/23 16:04:59;;;;;;;4.38;2.70;;;7.00;99.90;;;;;;5030843;28;20116;-80
2022/01/23 16:07:25;;;;;;;3.70;2.63;;;7.00;99.90;;;;;;5045519;28;20114;-81
2022/01/23 16:09:52;;;;;;;5.40;2.42;;;7.00;99.90;;;;;;5073309;28;20120;-81
2022/01/23 16:12:18;;;;;;;3.13;2.40;;;7.00;99.90;;;;;;5033640;28;20463;-81
2022/01/23 16:14:47;;;;;;;3.33;2.40;;;7.00;99.90;;;;;;5047889;28;20594;-81
2022/01/23 16:17:12;;;;;;;3.80;2.75;;;7.00;99.90;;;;;;5034115;28;20037;-81
2022/01/23 16:19:38;;;;;;;4.47;2.75;;;6.90;99.90;;;;;;5032250;28;20024;-81
2022/01/23 16:22:05;;;;;;;3.85;2.90;;;7.00;99.90;;;;;;5049138;28;20046;-81
2022/01/23 16:24:31;;;;;;;5.57;2.60;;;7.00;99.90;;;;;;5031992;28;20140;-81
2022/01/23 16:26:58;;;;;;;3.83;3.10;;;6.90;99.90;;;;;;5031913;28;20044;-81
2022/01/23 16:29:26;;;;;;;3.97;2.80;;;6.90;99.90;;;;;;5037341;28;20597;-81
2022/01/23 16:31:54;;;;;;;3.78;2.70;;;6.90;99.90;;;;;;5047856;28;20146;-81
2022/01/23 16:34:21;;;;;;;6.07;3.47;;;6.90;99.90;;;;;;5033669;28;20057;-81
2022/01/23 16:36:47;;;;;;;8.57;3.30;;;6.80;99.90;;;;;;5025896;28;20051;-81
2022/01/23 16:39:15;;;;;;;6.00;2.60;;;6.80;99.90;;;;;;5055381;28;20037;-81
2022/01/23 16:41:42;;;;;;;4.97;3.00;;;6.80;99.90;;;;;;5030322;28;20044;-81
2022/01/23 16:44:07;;;;;;;4.53;2.72;;;6.80;99.90;;;;;;5045537;28;20068;-81
2022/01/23 16:46:38;;;;;;;5.90;3.15;;;6.80;99.90;;;;;;5046228;28;20123;-81